createdAt,value
2018-05-01T00:00:43.225Z,18.67
2018-05-01T00:01:43.308Z,18.66
2018-05-01T00:02:43.231Z,18.66
2018-05-01T00:03:43.275Z,18.64
2018-05-01T00:04:43.296Z,18.64
2018-05-01T00:05:43.360Z,18.66
2018-05-01T00:06:43.287Z,18.66
2018-05-01T00:07:43.212Z,18.68
2018-05-01T00:08:43.273Z,18.66
2018-05-01T00:09:43.436Z,18.66
2018-05-01T00:10:43.362Z,18.66
2018-05-01T00:11:43.378Z,18.63
2018-05-01T00:12:43.300Z,18.64
2018-05-01T00:13:43.412Z,18.66
2018-05-01T00:14:43.349Z,18.63
2018-05-01T00:15:43.374Z,18.63
2018-05-01T00:16:43.356Z,18.64
2018-05-01T00:17:43.307Z,18.62
2018-05-01T00:18:43.217Z,18.64
2018-05-01T00:19:43.287Z,18.63
2018-05-01T00:20:43.346Z,18.63
2018-05-01T00:21:43.185Z,18.63
2018-05-01T00:22:43.412Z,18.64
2018-05-01T00:23:43.396Z,18.63
2018-05-01T00:24:43.306Z,18.64
2018-05-01T00:25:43.233Z,18.64
2018-05-01T00:26:43.195Z,18.62
2018-05-01T00:27:43.297Z,18.64
2018-05-01T00:28:43.307Z,18.63
2018-05-01T00:29:43.394Z,18.62
2018-05-01T00:30:43.369Z,18.64
2018-05-01T00:31:43.213Z,18.63
2018-05-01T00:32:43.333Z,18.63
2018-05-01T00:33:43.168Z,18.62
2018-05-01T00:34:43.172Z,18.63
2018-05-01T00:35:43.404Z,18.58
2018-05-01T00:36:43.297Z,18.6
2018-05-01T00:37:43.137Z,18.62
2018-05-01T00:38:43.364Z,18.62
2018-05-01T00:39:43.369Z,18.6
2018-05-01T00:40:43.164Z,18.63
2018-05-01T00:41:43.326Z,18.6
2018-05-01T00:42:43.267Z,18.62
2018-05-01T00:43:43.295Z,18.58
2018-05-01T00:44:43.292Z,18.58
2018-05-01T00:45:43.261Z,18.62
2018-05-01T00:46:43.331Z,18.62
2018-05-01T00:47:43.461Z,18.6
2018-05-01T00:48:43.327Z,18.62
2018-05-01T00:49:43.249Z,18.62
2018-05-01T00:50:43.282Z,18.6
2018-05-01T00:51:43.830Z,18.58
2018-05-01T00:52:43.500Z,18.6
2018-05-01T00:53:43.447Z,18.6
2018-05-01T00:54:43.331Z,18.62
2018-05-01T00:55:43.253Z,18.62
2018-05-01T00:56:43.220Z,18.6
2018-05-01T00:57:43.377Z,18.62
2018-05-01T00:58:43.434Z,18.62
2018-05-01T00:59:43.170Z,18.58
2018-05-01T01:00:43.328Z,18.57
2018-05-01T01:01:43.386Z,18.58
2018-05-01T01:02:43.260Z,18.56
2018-05-01T01:03:44.265Z,18.6
2018-05-01T01:04:43.291Z,18.57
2018-05-01T01:05:43.465Z,18.57
2018-05-01T01:06:43.368Z,18.56
2018-05-01T01:07:43.366Z,18.57
2018-05-01T01:08:43.390Z,18.56
2018-05-01T01:09:43.121Z,18.58
2018-05-01T01:10:43.193Z,18.58
2018-05-01T01:11:43.400Z,18.54
2018-05-01T01:12:43.396Z,18.57
2018-05-01T01:13:43.321Z,18.58
2018-05-01T01:14:43.198Z,18.56
2018-05-01T01:15:43.150Z,18.57
2018-05-01T01:16:43.350Z,18.58
2018-05-01T01:17:43.308Z,18.56
2018-05-01T01:19:06.924Z,18.56
2018-05-01T01:19:43.323Z,18.56
2018-05-01T01:20:43.319Z,18.57
2018-05-01T01:21:43.187Z,18.54
2018-05-01T01:22:43.402Z,18.58
2018-05-01T01:23:43.374Z,18.57
2018-05-01T01:24:43.254Z,18.56
2018-05-01T01:25:43.394Z,18.57
2018-05-01T01:26:43.250Z,18.54
2018-05-01T01:27:43.331Z,18.56
2018-05-01T01:28:43.340Z,18.56
2018-05-01T01:29:43.451Z,18.56
2018-05-01T01:30:43.203Z,18.57
2018-05-01T01:31:43.255Z,18.56
2018-05-01T01:32:43.320Z,18.56
2018-05-01T01:33:43.381Z,18.56
2018-05-01T01:34:43.364Z,18.57
2018-05-01T01:35:43.254Z,18.54
2018-05-01T01:36:43.297Z,18.56
2018-05-01T01:37:43.153Z,18.57
2018-05-01T01:38:43.273Z,18.54
2018-05-01T01:39:43.251Z,18.54
2018-05-01T01:40:43.257Z,18.54
2018-05-01T01:41:43.251Z,18.53
2018-05-01T01:42:43.300Z,18.53
2018-05-01T01:43:43.265Z,18.56
2018-05-01T01:44:43.470Z,18.54
2018-05-01T01:45:43.278Z,18.54
2018-05-01T01:46:43.240Z,18.56
2018-05-01T01:47:43.230Z,18.51
2018-05-01T01:48:43.272Z,18.53
2018-05-01T01:49:43.197Z,18.53
2018-05-01T01:50:43.212Z,18.51
2018-05-01T01:51:43.341Z,18.53
2018-05-01T01:52:43.248Z,18.54
2018-05-01T01:53:43.259Z,18.54
2018-05-01T01:54:43.245Z,18.51
2018-05-01T01:55:43.222Z,18.51
2018-05-01T01:56:43.255Z,18.53
2018-05-01T01:57:43.195Z,18.53
2018-05-01T01:58:43.253Z,18.51
2018-05-01T01:59:43.272Z,18.51
2018-05-01T02:00:43.325Z,18.51
2018-05-01T02:01:43.315Z,18.51
2018-05-01T02:02:43.188Z,18.53
2018-05-01T02:03:43.204Z,18.51
2018-05-01T02:04:43.217Z,18.5
2018-05-01T02:05:43.261Z,18.53
2018-05-01T02:06:43.250Z,18.51
2018-05-01T02:07:43.366Z,18.53
2018-05-01T02:08:43.509Z,18.51
2018-05-01T02:09:43.468Z,18.54
2018-05-01T02:10:43.398Z,18.5
2018-05-01T02:11:43.426Z,18.5
2018-05-01T02:12:43.236Z,18.54
2018-05-01T02:13:43.392Z,18.53
2018-05-01T02:14:43.243Z,18.51
2018-05-01T02:15:43.105Z,18.5
2018-05-01T02:16:43.366Z,18.51
2018-05-01T02:17:43.347Z,18.49
2018-05-01T02:18:43.309Z,18.51
2018-05-01T02:19:43.316Z,18.5
2018-05-01T02:20:43.218Z,18.5
2018-05-01T02:21:43.388Z,18.49
2018-05-01T02:22:43.309Z,18.5
2018-05-01T02:23:43.196Z,18.49
2018-05-01T02:24:43.356Z,18.5
2018-05-01T02:25:43.269Z,18.5
2018-05-01T02:26:43.329Z,18.49
2018-05-01T02:27:43.192Z,18.51
2018-05-01T02:28:43.410Z,18.5
2018-05-01T02:29:43.148Z,18.47
2018-05-01T02:30:43.156Z,18.5
2018-05-01T02:31:43.378Z,18.49
2018-05-01T02:32:43.291Z,18.47
2018-05-01T02:33:43.278Z,18.5
2018-05-01T02:34:43.302Z,18.49
2018-05-01T02:35:43.389Z,18.49
2018-05-01T02:36:43.270Z,18.5
2018-05-01T02:37:43.219Z,18.5
2018-05-01T02:38:43.437Z,18.46
2018-05-01T02:39:43.358Z,18.49
2018-05-01T02:40:43.345Z,18.5
2018-05-01T02:41:43.263Z,18.49
2018-05-01T02:42:43.131Z,18.5
2018-05-01T02:43:43.190Z,18.49
2018-05-01T02:44:43.251Z,18.46
2018-05-01T02:45:43.331Z,18.47
2018-05-01T02:46:43.318Z,18.47
2018-05-01T02:47:43.207Z,18.46
2018-05-01T02:48:43.370Z,18.47
2018-05-01T02:49:43.232Z,18.47
2018-05-01T02:50:43.229Z,18.46
2018-05-01T02:51:43.264Z,18.49
2018-05-01T02:52:43.353Z,18.5
2018-05-01T02:53:43.138Z,18.47
2018-05-01T02:54:43.286Z,18.49
2018-05-01T02:55:43.239Z,18.49
2018-05-01T02:56:43.277Z,18.43
2018-05-01T02:57:43.230Z,18.46
2018-05-01T02:58:43.231Z,18.44
2018-05-01T02:59:43.154Z,18.41
2018-05-01T03:00:43.423Z,18.47
2018-05-01T03:01:43.341Z,18.46
2018-05-01T03:02:43.340Z,18.46
2018-05-01T03:03:43.240Z,18.47
2018-05-01T03:04:43.240Z,18.49
2018-05-01T03:05:43.182Z,18.44
2018-05-01T03:06:43.189Z,18.47
2018-05-01T03:07:43.162Z,18.46
2018-05-01T03:08:43.345Z,18.46
2018-05-01T03:09:43.822Z,18.47
2018-05-01T03:10:43.237Z,18.46
2018-05-01T03:11:43.296Z,18.43
2018-05-01T03:12:43.205Z,18.46
2018-05-01T03:13:43.307Z,18.44
2018-05-01T03:14:43.431Z,18.44
2018-05-01T03:15:43.299Z,18.44
2018-05-01T03:16:43.296Z,18.44
2018-05-01T03:17:43.233Z,18.4
2018-05-01T03:18:43.407Z,18.44
2018-05-01T03:19:43.193Z,18.43
2018-05-01T03:20:43.310Z,18.44
2018-05-01T03:21:43.285Z,18.43
2018-05-01T03:22:43.427Z,18.43
2018-05-01T03:23:43.358Z,18.43
2018-05-01T03:24:43.044Z,18.44
2018-05-01T03:25:43.166Z,18.46
2018-05-01T03:26:43.152Z,18.43
2018-05-01T03:27:43.284Z,18.43
2018-05-01T03:28:43.282Z,18.43
2018-05-01T03:29:43.357Z,18.4
2018-05-01T03:30:43.228Z,18.41
2018-05-01T03:31:43.147Z,18.43
2018-05-01T03:32:43.256Z,18.41
2018-05-01T03:33:43.440Z,18.44
2018-05-01T03:34:43.119Z,18.4
2018-05-01T03:35:43.159Z,18.41
2018-05-01T03:36:43.299Z,18.43
2018-05-01T03:37:43.384Z,18.43
2018-05-01T03:38:43.272Z,18.43
2018-05-01T03:39:43.234Z,18.43
2018-05-01T03:40:43.262Z,18.43
2018-05-01T03:41:43.282Z,18.4
2018-05-01T03:42:43.152Z,18.43
2018-05-01T03:43:43.402Z,18.41
2018-05-01T03:44:43.454Z,18.39
2018-05-01T03:45:43.249Z,18.41
2018-05-01T03:46:43.570Z,18.44
2018-05-01T03:47:43.421Z,18.43
2018-05-01T03:48:43.427Z,18.43
2018-05-01T03:49:43.091Z,18.4
2018-05-01T03:50:43.228Z,18.4
2018-05-01T03:51:43.320Z,18.41
2018-05-01T03:52:43.477Z,18.41
2018-05-01T03:53:43.134Z,18.4
2018-05-01T03:54:43.236Z,18.41
2018-05-01T03:55:43.313Z,18.4
2018-05-01T03:56:43.175Z,18.39
2018-05-01T03:57:43.317Z,18.37
2018-05-01T03:58:43.162Z,18.39
2018-05-01T03:59:43.266Z,18.4
2018-05-01T04:00:43.336Z,18.41
2018-05-01T04:01:43.206Z,18.41
2018-05-01T04:02:43.266Z,18.37
2018-05-01T04:03:43.177Z,18.4
2018-05-01T04:04:43.136Z,18.41
2018-05-01T04:05:43.387Z,18.39
2018-05-01T04:06:43.225Z,18.4
2018-05-01T04:07:43.318Z,18.4
2018-05-01T04:08:43.258Z,18.37
2018-05-01T04:10:07.072Z,18.39
2018-05-01T04:10:43.302Z,18.4
2018-05-01T04:11:43.334Z,18.39
2018-05-01T04:12:43.255Z,18.39
2018-05-01T04:13:43.372Z,18.41
2018-05-01T04:14:43.186Z,18.36
2018-05-01T04:15:43.390Z,18.37
2018-05-01T04:16:43.303Z,18.4
2018-05-01T04:17:43.090Z,18.39
2018-05-01T04:18:43.138Z,18.39
2018-05-01T04:19:43.341Z,18.39
2018-05-01T04:20:43.162Z,18.36
2018-05-01T04:21:43.446Z,18.36
2018-05-01T04:22:43.468Z,18.4
2018-05-01T04:23:43.256Z,18.39
2018-05-01T04:24:43.221Z,18.39
2018-05-01T04:25:43.371Z,18.4
2018-05-01T04:26:43.298Z,18.37
2018-05-01T04:27:43.250Z,18.37
2018-05-01T04:28:43.092Z,18.39
2018-05-01T04:29:43.268Z,18.36
2018-05-01T04:30:43.361Z,18.39
2018-05-01T04:31:43.225Z,18.4
2018-05-01T04:37:36.134Z,18.37
2018-05-01T04:38:36.216Z,18.36
2018-05-01T04:39:36.029Z,18.37
2018-05-01T04:40:36.090Z,18.39
2018-05-01T04:41:36.184Z,18.35
2018-05-01T04:42:36.202Z,18.4
2018-05-01T04:43:36.149Z,18.39
2018-05-01T04:44:36.234Z,18.36
2018-05-01T04:45:36.263Z,18.37
2018-05-01T04:46:36.068Z,18.37
2018-05-01T04:47:36.125Z,18.36
2018-05-01T04:48:36.142Z,18.37
2018-05-01T04:49:38.108Z,18.4
2018-05-01T04:50:36.153Z,18.37
2018-05-01T04:51:36.601Z,18.36
2018-05-01T04:52:36.174Z,18.37
2018-05-01T04:53:36.172Z,18.33
2018-05-01T04:54:36.156Z,18.37
2018-05-01T04:55:36.045Z,18.39
2018-05-01T04:56:36.219Z,18.37
2018-05-01T04:57:36.135Z,18.4
2018-05-01T04:58:36.616Z,18.39
2018-05-01T04:59:36.194Z,18.37
2018-05-01T05:00:36.189Z,18.37
2018-05-01T05:01:36.163Z,18.37
2018-05-01T05:02:36.058Z,18.36
2018-05-01T05:03:36.196Z,18.37
2018-05-01T05:04:36.182Z,18.39
2018-05-01T05:05:36.250Z,18.37
2018-05-01T05:06:36.096Z,18.4
2018-05-01T05:07:36.316Z,18.37
2018-05-01T05:08:36.099Z,18.35
2018-05-01T05:09:36.773Z,18.39
2018-05-01T05:10:36.059Z,18.4
2018-05-01T05:11:36.093Z,18.36
2018-05-01T05:12:36.191Z,18.37
2018-05-01T05:13:36.542Z,18.39
2018-05-01T05:14:36.137Z,18.37
2018-05-01T05:15:36.182Z,18.4
2018-05-01T05:16:36.221Z,18.37
2018-05-01T05:17:36.206Z,18.39
2018-05-01T05:18:36.170Z,18.37
2018-05-01T05:19:36.193Z,18.39
2018-05-01T05:20:36.242Z,18.37
2018-05-01T05:21:36.192Z,18.37
2018-05-01T05:22:36.094Z,18.39
2018-05-01T05:23:36.324Z,18.35
2018-05-01T05:24:36.137Z,18.39
2018-05-01T05:25:36.297Z,18.36
2018-05-01T05:26:36.275Z,18.36
2018-05-01T05:27:36.237Z,18.37
2018-05-01T05:28:36.161Z,18.39
2018-05-01T05:29:36.179Z,18.35
2018-05-01T05:30:36.323Z,18.37
2018-05-01T05:31:36.156Z,18.36
2018-05-01T05:32:36.445Z,18.36
2018-05-01T05:33:36.228Z,18.36
2018-05-01T05:34:36.272Z,18.36
2018-05-01T05:35:36.413Z,18.35
2018-05-01T05:36:36.280Z,18.37
2018-05-01T05:37:36.269Z,18.4
2018-05-01T05:38:36.075Z,18.35
2018-05-01T05:39:36.106Z,18.37
2018-05-01T05:40:36.016Z,18.37
2018-05-01T05:41:36.075Z,18.35
2018-05-01T05:42:36.518Z,18.35
2018-05-01T05:43:36.316Z,18.37
2018-05-01T05:44:36.040Z,18.37
2018-05-01T05:45:36.096Z,18.39
2018-05-01T05:46:36.327Z,18.39
2018-05-01T05:47:36.239Z,18.36
2018-05-01T05:48:36.078Z,18.37
2018-05-01T05:49:36.247Z,18.37
2018-05-01T05:50:36.302Z,18.36
2018-05-01T05:51:36.251Z,18.39
2018-05-01T05:52:36.090Z,18.37
2018-05-01T05:53:36.044Z,18.35
2018-05-01T05:54:36.298Z,18.37
2018-05-01T05:55:36.272Z,18.37
2018-05-01T05:56:36.167Z,18.37
2018-05-01T05:57:36.097Z,18.37
2018-05-01T05:58:36.372Z,18.39
2018-05-01T05:59:36.029Z,18.36
2018-05-01T06:00:36.169Z,18.39
2018-05-01T06:01:36.070Z,18.39
2018-05-01T06:02:36.168Z,18.39
2018-05-01T06:03:36.186Z,18.37
2018-05-01T06:04:36.330Z,18.39
2018-05-01T06:05:36.073Z,18.36
2018-05-01T06:06:36.398Z,18.37
2018-05-01T06:07:36.342Z,18.4
2018-05-01T06:08:36.307Z,18.37
2018-05-01T06:09:36.196Z,18.37
2018-05-01T06:10:36.197Z,18.37
2018-05-01T06:11:36.192Z,18.36
2018-05-01T06:12:36.178Z,18.36
2018-05-01T06:13:36.425Z,18.37
2018-05-01T06:14:36.150Z,18.35
2018-05-01T06:15:36.307Z,18.39
2018-05-01T06:16:36.223Z,18.37
2018-05-01T06:17:36.205Z,18.33
2018-05-01T06:18:36.095Z,18.35
2018-05-01T06:19:36.026Z,18.39
2018-05-01T06:20:36.219Z,18.36
2018-05-01T06:21:36.175Z,18.37
2018-05-01T06:22:36.088Z,18.36
2018-05-01T06:23:36.225Z,18.36
2018-05-01T06:24:36.236Z,18.36
2018-05-01T06:25:36.048Z,18.36
2018-05-01T06:26:36.125Z,18.33
2018-05-01T06:27:35.912Z,18.36
2018-05-01T06:28:36.243Z,18.36
2018-05-01T06:29:36.119Z,18.36
2018-05-01T06:30:36.157Z,18.37
2018-05-01T06:31:36.216Z,18.35
2018-05-01T06:32:36.093Z,18.33
2018-05-01T06:33:36.179Z,18.35
2018-05-01T06:34:36.101Z,18.36
2018-05-01T06:35:36.167Z,18.35
2018-05-01T06:36:36.133Z,18.37
2018-05-01T06:37:36.058Z,18.37
2018-05-01T06:38:36.111Z,18.35
2018-05-01T06:39:36.123Z,18.36
2018-05-01T06:40:36.178Z,18.36
2018-05-01T06:41:36.248Z,18.33
2018-05-01T06:42:36.257Z,18.36
2018-05-01T06:43:36.214Z,18.36
2018-05-01T06:44:36.219Z,18.36
2018-05-01T06:45:36.099Z,18.36
2018-05-01T06:46:36.342Z,18.37
2018-05-01T06:47:36.247Z,18.35
2018-05-01T06:48:36.163Z,18.36
2018-05-01T06:49:36.175Z,18.36
2018-05-01T06:50:36.172Z,18.36
2018-05-01T06:51:36.094Z,18.36
2018-05-01T06:52:36.298Z,18.36
2018-05-01T06:53:36.545Z,18.36
2018-05-01T06:54:36.311Z,18.37
2018-05-01T06:55:36.175Z,18.36
2018-05-01T06:56:36.107Z,18.35
2018-05-01T06:57:36.407Z,18.36
2018-05-01T06:58:36.111Z,18.39
2018-05-01T06:59:36.161Z,18.35
2018-05-01T07:00:36.303Z,18.36
2018-05-01T07:01:36.181Z,18.37
2018-05-01T07:02:36.275Z,18.35
2018-05-01T07:03:36.220Z,18.35
2018-05-01T07:04:37.803Z,18.36
2018-05-01T07:05:36.307Z,18.35
2018-05-01T07:06:36.170Z,18.36
2018-05-01T07:07:36.185Z,18.36
2018-05-01T07:08:36.359Z,18.33
2018-05-01T07:09:36.164Z,18.35
2018-05-01T07:10:36.116Z,18.36
2018-05-01T07:11:36.171Z,18.33
2018-05-01T07:12:36.187Z,18.35
2018-05-01T07:13:36.270Z,18.39
2018-05-01T07:14:36.250Z,18.35
2018-05-01T07:15:36.105Z,18.36
2018-05-01T07:16:36.351Z,18.36
2018-05-01T07:17:36.189Z,18.33
2018-05-01T07:18:36.361Z,18.35
2018-05-01T07:19:36.223Z,18.35
2018-05-01T07:20:36.105Z,18.32
2018-05-01T07:21:36.243Z,18.36
2018-05-01T07:22:36.128Z,18.36
2018-05-01T07:23:36.176Z,18.35
2018-05-01T07:24:36.259Z,18.36
2018-05-01T07:25:36.322Z,18.37
2018-05-01T07:26:36.284Z,18.33
2018-05-01T07:27:36.318Z,18.33
2018-05-01T07:28:36.447Z,18.35
2018-05-01T07:29:36.306Z,18.33
2018-05-01T07:30:36.280Z,18.36
2018-05-01T07:31:36.157Z,18.35
2018-05-01T07:32:36.179Z,18.33
2018-05-01T07:33:36.205Z,18.33
2018-05-01T07:34:36.114Z,18.37
2018-05-01T07:35:36.710Z,18.33
2018-05-01T07:36:36.306Z,18.36
2018-05-01T07:37:36.247Z,18.36
2018-05-01T07:38:36.279Z,18.33
2018-05-01T07:39:36.187Z,18.35
2018-05-01T07:40:36.042Z,18.35
2018-05-01T07:41:37.037Z,18.33
2018-05-01T07:42:36.352Z,18.36
2018-05-01T07:43:36.185Z,18.36
2018-05-01T07:44:36.213Z,18.33
2018-05-01T07:45:36.254Z,18.36
2018-05-01T07:46:36.322Z,18.33
2018-05-01T07:47:36.275Z,18.35
2018-05-01T07:48:36.229Z,18.35
2018-05-01T07:49:36.246Z,18.35
2018-05-01T07:50:36.119Z,18.33
2018-05-01T07:51:36.156Z,18.32
2018-05-01T07:52:36.137Z,18.35
2018-05-01T07:53:36.094Z,18.33
2018-05-01T07:54:36.171Z,18.36
2018-05-01T07:55:36.231Z,18.33
2018-05-01T07:56:36.183Z,18.33
2018-05-01T07:57:36.400Z,18.37
2018-05-01T07:58:36.346Z,18.35
2018-05-01T07:59:36.107Z,18.3
2018-05-01T08:00:36.112Z,18.36
2018-05-01T08:01:36.210Z,18.33
2018-05-01T08:02:36.462Z,18.33
2018-05-01T08:03:36.154Z,18.37
2018-05-01T08:04:36.446Z,18.37
2018-05-01T08:05:36.533Z,18.37
2018-05-01T08:06:36.320Z,18.4
2018-05-01T08:07:36.141Z,18.44
2018-05-01T08:08:36.377Z,18.47
2018-05-01T08:09:36.092Z,18.51
2018-05-01T08:10:36.081Z,18.53
2018-05-01T08:11:36.331Z,18.56
2018-05-01T08:12:36.160Z,18.57
2018-05-01T08:13:36.178Z,18.56
2018-05-01T08:14:36.092Z,18.56
2018-05-01T08:15:36.473Z,18.57
2018-05-01T08:16:36.296Z,18.57
2018-05-01T08:17:36.402Z,18.57
2018-05-01T08:18:37.900Z,18.58
2018-05-01T08:19:36.170Z,18.57
2018-05-01T08:20:36.297Z,18.6
2018-05-01T08:21:36.150Z,18.57
2018-05-01T08:22:36.209Z,18.6
2018-05-01T08:23:36.133Z,18.57
2018-05-01T08:24:36.250Z,18.6
2018-05-01T08:25:36.166Z,18.63
2018-05-01T08:26:36.222Z,18.63
2018-05-01T08:27:36.226Z,18.63
2018-05-01T08:28:36.166Z,18.64
2018-05-01T08:29:36.291Z,18.67
2018-05-01T08:30:36.920Z,18.62
2018-05-01T08:31:36.055Z,18.64
2018-05-01T08:32:36.187Z,18.64
2018-05-01T08:33:36.151Z,18.64
2018-05-01T08:34:36.271Z,18.66
2018-05-01T08:35:36.212Z,18.66
2018-05-01T08:36:36.319Z,18.64
2018-05-01T08:37:36.980Z,18.64
2018-05-01T08:38:36.219Z,18.68
2018-05-01T08:39:36.147Z,18.68
2018-05-01T08:40:36.192Z,18.68
2018-05-01T08:41:36.117Z,18.7
2018-05-01T08:42:36.608Z,18.7
2018-05-01T08:43:36.226Z,18.68
2018-05-01T08:44:36.139Z,18.71
2018-05-01T08:45:36.340Z,18.71
2018-05-01T08:46:36.095Z,18.73
2018-05-01T08:47:36.830Z,18.75
2018-05-01T08:48:36.216Z,18.75
2018-05-01T08:49:36.205Z,18.73
2018-05-01T08:50:36.222Z,18.78
2018-05-01T08:51:36.229Z,18.74
2018-05-01T08:52:36.109Z,18.73
2018-05-01T08:53:36.091Z,18.75
2018-05-01T08:54:36.075Z,18.77
2018-05-01T08:55:36.347Z,18.74
2018-05-01T08:56:36.327Z,18.74
2018-05-01T08:57:36.171Z,18.74
2018-05-01T08:58:36.434Z,18.73
2018-05-01T08:59:36.297Z,18.73
2018-05-01T09:00:36.053Z,18.74
2018-05-01T09:01:36.298Z,18.75
2018-05-01T09:02:36.136Z,18.8
2018-05-01T09:03:36.231Z,18.78
2018-05-01T09:04:36.173Z,18.8
2018-05-01T09:05:36.253Z,18.78
2018-05-01T09:06:36.379Z,18.78
2018-05-01T09:07:36.298Z,18.78
2018-05-01T09:08:36.227Z,18.78
2018-05-01T09:09:36.917Z,18.77
2018-05-01T09:10:36.440Z,18.78
2018-05-01T09:11:36.142Z,18.81
2018-05-01T09:12:53.130Z,18.8
2018-05-01T09:13:36.224Z,18.8
2018-05-01T09:14:36.146Z,18.78
2018-05-01T09:15:35.898Z,18.81
2018-05-01T09:16:35.996Z,18.8
2018-05-01T09:17:36.608Z,18.84
2018-05-01T09:18:36.082Z,18.83
2018-05-01T09:19:36.230Z,18.81
2018-05-01T09:20:36.384Z,18.85
2018-05-01T09:21:36.195Z,18.84
2018-05-01T09:22:36.189Z,18.83
2018-05-01T09:23:36.156Z,18.83
2018-05-01T09:24:36.226Z,18.81
2018-05-01T09:25:36.690Z,18.83
2018-05-01T09:26:36.248Z,18.85
2018-05-01T09:27:36.188Z,18.83
2018-05-01T09:28:36.276Z,18.83
2018-05-01T09:29:36.135Z,18.84
2018-05-01T09:30:36.236Z,18.83
2018-05-01T09:31:36.168Z,18.84
2018-05-01T09:32:36.576Z,18.85
2018-05-01T09:33:36.039Z,18.84
2018-05-01T09:34:36.055Z,18.84
2018-05-01T09:35:36.082Z,18.83
2018-05-01T09:36:36.180Z,18.85
2018-05-01T09:37:36.214Z,18.88
2018-05-01T09:38:36.358Z,18.87
2018-05-01T09:39:36.108Z,18.85
2018-05-01T09:40:36.206Z,18.87
2018-05-01T09:41:36.081Z,18.88
2018-05-01T09:42:36.132Z,18.9
2018-05-01T09:43:36.152Z,18.88
2018-05-01T09:44:36.090Z,18.87
2018-05-01T09:45:36.108Z,18.84
2018-05-01T09:46:36.075Z,18.84
2018-05-01T09:47:36.433Z,18.8
2018-05-01T09:48:36.048Z,18.83
2018-05-01T09:49:36.410Z,18.83
2018-05-01T09:50:36.109Z,18.81
2018-05-01T09:51:36.233Z,18.81
2018-05-01T09:52:36.045Z,18.81
2018-05-01T09:53:36.059Z,18.78
2018-05-01T09:54:36.188Z,18.78
2018-05-01T09:55:36.313Z,18.78
2018-05-01T09:56:36.079Z,18.84
2018-05-01T09:57:36.180Z,18.78
2018-05-01T09:58:36.110Z,18.84
2018-05-01T09:59:36.107Z,18.84
2018-05-01T10:00:36.045Z,18.84
2018-05-01T10:01:36.193Z,18.83
2018-05-01T10:02:36.102Z,18.81
2018-05-01T10:03:36.206Z,18.81
2018-05-01T10:04:36.011Z,18.8
2018-05-01T10:05:36.155Z,18.85
2018-05-01T10:06:36.051Z,18.84
2018-05-01T10:07:36.117Z,18.83
2018-05-01T10:08:36.121Z,18.9
2018-05-01T10:09:36.299Z,18.85
2018-05-01T10:10:36.040Z,18.85
2018-05-01T10:11:36.197Z,18.78
2018-05-01T10:12:36.098Z,18.8
2018-05-01T10:13:36.262Z,18.8
2018-05-01T10:14:36.124Z,18.73
2018-05-01T10:15:36.074Z,18.74
2018-05-01T10:16:35.990Z,18.73
2018-05-01T10:17:36.037Z,18.68
2018-05-01T10:18:36.165Z,18.71
2018-05-01T10:19:36.169Z,18.73
2018-05-01T10:20:36.038Z,18.71
2018-05-01T10:21:36.239Z,18.73
2018-05-01T10:22:36.124Z,18.71
2018-05-01T10:23:36.089Z,18.74
2018-05-01T10:24:36.028Z,18.77
2018-05-01T10:25:36.178Z,18.73
2018-05-01T10:26:36.067Z,18.75
2018-05-01T10:27:36.100Z,18.78
2018-05-01T10:28:36.559Z,18.78
2018-05-01T10:29:36.416Z,18.75
2018-05-01T10:30:36.128Z,18.78
2018-05-01T10:31:36.037Z,18.77
2018-05-01T10:32:36.214Z,18.78
2018-05-01T10:33:36.070Z,18.78
2018-05-01T10:34:36.276Z,18.8
2018-05-01T10:35:36.211Z,18.78
2018-05-01T10:36:36.196Z,18.77
2018-05-01T10:37:36.084Z,18.78
2018-05-01T10:38:37.798Z,18.81
2018-05-01T10:39:36.023Z,18.8
2018-05-01T10:40:36.255Z,18.8
2018-05-01T10:41:36.299Z,18.83
2018-05-01T10:42:36.111Z,18.81
2018-05-01T10:43:36.162Z,18.83
2018-05-01T10:44:36.012Z,18.84
2018-05-01T10:45:36.300Z,18.83
2018-05-01T10:46:36.236Z,18.83
2018-05-01T10:47:36.089Z,18.83
2018-05-01T10:48:36.098Z,18.81
2018-05-01T10:49:36.192Z,18.84
2018-05-01T10:50:36.150Z,18.84
2018-05-01T10:51:36.239Z,18.87
2018-05-01T10:52:36.203Z,18.84
2018-05-01T10:53:36.281Z,18.88
2018-05-01T10:54:36.816Z,18.87
2018-05-01T10:55:36.193Z,18.85
2018-05-01T10:56:36.144Z,18.87
2018-05-01T10:57:35.959Z,18.88
2018-05-01T10:58:36.068Z,18.87
2018-05-01T10:59:36.097Z,18.87
2018-05-01T11:00:36.603Z,18.9
2018-05-01T11:01:36.014Z,18.91
2018-05-01T11:02:36.129Z,18.88
2018-05-01T11:03:36.225Z,18.88
2018-05-01T11:04:35.980Z,18.85
2018-05-01T11:05:36.066Z,18.85
2018-05-01T11:06:36.278Z,18.85
2018-05-01T11:07:36.047Z,18.88
2018-05-01T11:08:36.197Z,18.88
2018-05-01T11:09:35.896Z,18.87
2018-05-01T11:10:36.117Z,18.88
2018-05-01T11:11:36.155Z,18.91
2018-05-01T11:12:35.996Z,18.87
2018-05-01T11:13:36.146Z,18.87
2018-05-01T11:14:36.052Z,18.88
2018-05-01T11:15:36.109Z,18.88
2018-05-01T11:16:36.054Z,18.85
2018-05-01T11:17:36.441Z,18.88
2018-05-01T11:18:36.152Z,18.85
2018-05-01T11:19:36.199Z,18.85
2018-05-01T11:20:36.207Z,18.81
2018-05-01T11:21:36.237Z,18.85
2018-05-01T11:22:36.164Z,18.84
2018-05-01T11:23:35.963Z,18.83
2018-05-01T11:24:36.616Z,18.84
2018-05-01T11:25:36.101Z,18.85
2018-05-01T11:26:36.088Z,18.81
2018-05-01T11:27:36.024Z,18.81
2018-05-01T11:28:36.692Z,18.78
2018-05-01T11:29:36.047Z,18.8
2018-05-01T11:30:36.219Z,18.8
2018-05-01T11:31:36.024Z,18.8
2018-05-01T11:32:36.041Z,18.78
2018-05-01T11:33:36.654Z,18.78
2018-05-01T11:34:35.977Z,18.75
2018-05-01T11:35:36.029Z,18.75
2018-05-01T11:36:36.225Z,18.77
2018-05-01T11:37:36.168Z,18.78
2018-05-01T11:38:36.104Z,18.78
2018-05-01T11:39:36.203Z,18.74
2018-05-01T11:40:35.986Z,18.74
2018-05-01T11:41:36.192Z,18.75
2018-05-01T11:42:36.203Z,18.73
2018-05-01T11:43:36.281Z,18.74
2018-05-01T11:44:36.151Z,18.75
2018-05-01T11:45:36.177Z,18.75
2018-05-01T11:46:36.084Z,18.71
2018-05-01T11:47:36.134Z,18.7
2018-05-01T11:48:36.018Z,18.71
2018-05-01T11:49:36.147Z,18.71
2018-05-01T11:50:37.929Z,18.7
2018-05-01T11:51:35.988Z,18.7
2018-05-01T11:52:36.047Z,18.68
2018-05-01T11:53:36.096Z,18.66
2018-05-01T11:54:36.180Z,18.67
2018-05-01T11:55:36.098Z,18.68
2018-05-01T11:56:36.204Z,18.64
2018-05-01T11:57:36.022Z,18.66
2018-05-01T11:58:36.144Z,18.67
2018-05-01T11:59:35.970Z,18.66
2018-05-01T12:00:36.256Z,18.64
2018-05-01T12:01:36.032Z,18.67
2018-05-01T12:02:36.523Z,18.63
2018-05-01T12:03:36.121Z,18.63
2018-05-01T12:04:36.117Z,18.64
2018-05-01T12:05:36.129Z,18.62
2018-05-01T12:06:36.123Z,18.63
2018-05-01T12:07:35.915Z,18.62
2018-05-01T12:08:36.096Z,18.6
2018-05-01T12:09:35.983Z,18.63
2018-05-01T12:10:36.530Z,18.63
2018-05-01T12:11:36.051Z,18.6
2018-05-01T12:12:36.157Z,18.6
2018-05-01T12:13:36.034Z,18.62
2018-05-01T12:14:36.157Z,18.6
2018-05-01T12:15:36.208Z,18.62
2018-05-01T12:16:36.135Z,18.62
2018-05-01T12:17:36.251Z,18.6
2018-05-01T12:18:36.556Z,18.6
2018-05-01T12:19:36.025Z,18.6
2018-05-01T12:20:36.047Z,18.56
2018-05-01T12:21:36.088Z,18.6
2018-05-01T12:22:36.054Z,18.6
2018-05-01T12:23:36.308Z,18.58
2018-05-01T12:24:35.931Z,18.58
2018-05-01T12:25:36.082Z,18.6
2018-05-01T12:26:35.988Z,18.57
2018-05-01T12:27:36.104Z,18.56
2018-05-01T12:28:36.157Z,18.58
2018-05-01T12:29:36.214Z,18.58
2018-05-01T12:30:36.135Z,18.6
2018-05-01T12:31:36.049Z,18.57
2018-05-01T12:32:36.285Z,18.57
2018-05-01T12:33:36.141Z,18.58
2018-05-01T12:34:36.211Z,18.57
2018-05-01T12:35:36.218Z,18.56
2018-05-01T12:36:37.210Z,18.56
2018-05-01T12:37:36.050Z,18.58
2018-05-01T12:38:36.209Z,18.54
2018-05-01T12:39:36.231Z,18.57
2018-05-01T12:40:36.200Z,18.57
2018-05-01T12:41:36.039Z,18.54
2018-05-01T12:42:36.082Z,18.56
2018-05-01T12:43:36.131Z,18.58
2018-05-01T12:44:36.191Z,18.54
2018-05-01T12:45:36.349Z,18.57
2018-05-01T12:46:35.960Z,18.54
2018-05-01T12:47:36.067Z,18.54
2018-05-01T12:48:36.425Z,18.56
2018-05-01T12:49:35.939Z,18.56
2018-05-01T12:50:36.270Z,18.54
2018-05-01T12:51:36.275Z,18.57
2018-05-01T12:52:36.273Z,18.54
2018-05-01T12:53:36.293Z,18.53
2018-05-01T12:54:35.972Z,18.54
2018-05-01T12:55:36.136Z,18.57
2018-05-01T12:56:36.130Z,18.51
2018-05-01T12:57:36.213Z,18.56
2018-05-01T12:58:36.074Z,18.53
2018-05-01T12:59:36.105Z,18.54
2018-05-01T13:00:36.054Z,18.53